sensor_id;sensor_type;location;lat;lon;timestamp;pressure;altitude;pressure_sealevel;temperature;humidity
8501;BME280;4288;48.484;10.024;2023-12-14T00:00:07;94518.03;;;6.27;nan
8501;BME280;4288;48.484;10.024;2023-12-14T00:02:35;94530.50;;;6.23;nan
8501;BME280;4288;48.484;10.024;2023-12-14T00:05:02;94525.59;;;6.22;nan
8501;BME280;4288;48.484;10.024;2023-12-14T00:07:30;94521.41;;;6.21;nan
8501;BME280;4288;48.484;10.024;2023-12-14T00:09:58;94523.69;;;6.22;nan
8501;BME280;4288;48.484;10.024;2023-12-14T00:12:26;94529.00;;;6.26;nan
8501;BME280;4288;48.484;10.024;2023-12-14T00:14:53;94535.06;;;6.30;nan
8501;BME280;4288;48.484;10.024;2023-12-14T00:17:20;94531.69;;;6.37;nan
8501;BME280;4288;48.484;10.024;2023-12-14T00:19:48;94531.28;;;6.38;nan
8501;BME280;4288;48.484;10.024;2023-12-14T00:22:15;94532.44;;;6.34;nan
8501;BME280;4288;48.484;10.024;2023-12-14T00:24:42;94536.19;;;6.22;nan
8501;BME280;4288;48.484;10.024;2023-12-14T00:27:11;94546.81;;;6.22;nan
8501;BME280;4288;48.484;10.024;2023-12-14T00:29:39;94546.44;;;6.34;nan
8501;BME280;4288;48.484;10.024;2023-12-14T00:32:06;94550.19;;;6.22;nan
8501;BME280;4288;48.484;10.024;2023-12-14T00:34:34;94555.50;;;6.19;nan
8501;BME280;4288;48.484;10.024;2023-12-14T00:37:01;94557.03;;;6.20;nan
8501;BME280;4288;48.484;10.024;2023-12-14T00:39:29;94567.28;;;6.25;nan
8501;BME280;4288;48.484;10.024;2023-12-14T00:41:56;94568.81;;;6.26;nan
8501;BME280;4288;48.484;10.024;2023-12-14T00:44:25;94568.41;;;6.24;nan
8501;BME280;4288;48.484;10.024;2023-12-14T00:46:52;94572.19;;;6.23;nan
8501;BME280;4288;48.484;10.024;2023-12-14T00:49:18;94579.03;;;6.27;nan
8501;BME280;4288;48.484;10.024;2023-12-14T00:51:46;94581.31;;;6.25;nan
8501;BME280;4288;48.484;10.024;2023-12-14T00:54:13;94587.78;;;6.32;nan
8501;BME280;4288;48.484;10.024;2023-12-14T00:56:40;94590.41;;;6.32;nan
8501;BME280;4288;48.484;10.024;2023-12-14T00:59:08;94594.22;;;6.38;nan
8501;BME280;4288;48.484;10.024;2023-12-14T01:01:36;94591.19;;;6.36;nan
8501;BME280;4288;48.484;10.024;2023-12-14T01:04:04;94590.81;;;6.37;nan
8501;BME280;4288;48.484;10.024;2023-12-14T01:06:31;94590.78;;;6.30;nan
8501;BME280;4288;48.484;10.024;2023-12-14T01:08:59;94598.72;;;6.30;nan
8501;BME280;4288;48.484;10.024;2023-12-14T01:11:26;94604.81;;;6.27;nan
8501;BME280;4288;48.484;10.024;2023-12-14T01:13:53;94605.56;;;6.31;nan
8501;BME280;4288;48.484;10.024;2023-12-14T01:16:21;94611.25;;;6.29;nan
8501;BME280;4288;48.484;10.024;2023-12-14T01:18:50;94618.06;;;6.30;nan
8501;BME280;4288;48.484;10.024;2023-12-14T01:21:17;94616.56;;;6.33;nan
8501;BME280;4288;48.484;10.024;2023-12-14T01:23:44;94613.91;;;6.26;nan
8501;BME280;4288;48.484;10.024;2023-12-14T01:26:12;94616.13;;;6.20;nan
8501;BME280;4288;48.484;10.024;2023-12-14T01:28:39;94625.25;;;6.19;nan
8501;BME280;4288;48.484;10.024;2023-12-14T01:31:06;94626.78;;;6.27;nan
8501;BME280;4288;48.484;10.024;2023-12-14T01:33:34;94634.38;;;6.32;nan
8501;BME280;4288;48.484;10.024;2023-12-14T01:36:03;94637.03;;;6.29;nan
8501;BME280;4288;48.484;10.024;2023-12-14T01:38:30;94646.09;;;6.21;nan
8501;BME280;4288;48.484;10.024;2023-12-14T01:40:58;94642.66;;;6.20;nan
8501;BME280;4288;48.484;10.024;2023-12-14T01:43:25;94647.25;;;6.23;nan
8501;BME280;4288;48.484;10.024;2023-12-14T01:45:53;94643.81;;;6.23;nan
8501;BME280;4288;48.484;10.024;2023-12-14T01:48:20;94652.53;;;6.20;nan
8501;BME280;4288;48.484;10.024;2023-12-14T01:50:47;94655.19;;;6.23;nan
8501;BME280;4288;48.484;10.024;2023-12-14T01:53:16;94652.88;;;6.15;nan
8501;BME280;4288;48.484;10.024;2023-12-14T01:55:43;94665.03;;;6.16;nan
8501;BME280;4288;48.484;10.024;2023-12-14T01:58:11;94662.75;;;6.18;nan
8501;BME280;4288;48.484;10.024;2023-12-14T02:00:43;94666.19;;;6.22;nan
8501;BME280;4288;48.484;10.024;2023-12-14T02:03:13;94680.19;;;6.19;nan
8501;BME280;4288;48.484;10.024;2023-12-14T02:05:40;94679.09;;;6.27;nan
8501;BME280;4288;48.484;10.024;2023-12-14T02:08:08;94687.06;;;6.34;nan
8501;BME280;4288;48.484;10.024;2023-12-14T02:10:36;94680.66;;;6.35;nan
8501;BME280;4288;48.484;10.024;2023-12-14T02:13:04;94685.94;;;6.35;nan
8501;BME280;4288;48.484;10.024;2023-12-14T02:15:31;94686.69;;;6.32;nan
8501;BME280;4288;48.484;10.024;2023-12-14T02:17:59;94698.44;;;6.35;nan
8501;BME280;4288;48.484;10.024;2023-12-14T02:20:26;94694.31;;;6.41;nan
8501;BME280;4288;48.484;10.024;2023-12-14T02:22:55;94707.13;;;6.28;nan
8501;BME280;4288;48.484;10.024;2023-12-14T02:25:24;94702.22;;;6.30;nan
8501;BME280;4288;48.484;10.024;2023-12-14T02:27:51;94701.41;;;6.22;nan
8501;BME280;4288;48.484;10.024;2023-12-14T02:30:19;94696.50;;;6.24;nan
8501;BME280;4288;48.484;10.024;2023-12-14T02:32:46;94709.81;;;6.32;nan
8501;BME280;4288;48.484;10.024;2023-12-14T02:35:14;94706.41;;;6.31;nan
8501;BME280;4288;48.484;10.024;2023-12-14T02:37:41;94706.03;;;6.32;nan
8501;BME280;4288;48.484;10.024;2023-12-14T02:40:10;94715.53;;;6.34;nan
8501;BME280;4288;48.484;10.024;2023-12-14T02:42:38;94719.69;;;6.35;nan
8501;BME280;4288;48.484;10.024;2023-12-14T02:45:07;94718.91;;;6.34;nan
8501;BME280;4288;48.484;10.024;2023-12-14T02:47:34;94715.91;;;6.36;nan
8501;BME280;4288;48.484;10.024;2023-12-14T02:50:02;94723.09;;;6.32;nan
8501;BME280;4288;48.484;10.024;2023-12-14T02:52:29;94734.44;;;6.32;nan
8501;BME280;4288;48.484;10.024;2023-12-14T02:54:57;94735.97;;;6.29;nan
8501;BME280;4288;48.484;10.024;2023-12-14T02:57:26;94732.53;;;6.25;nan
8501;BME280;4288;48.484;10.024;2023-12-14T02:59:53;94736.25;;;6.17;nan
8501;BME280;4288;48.484;10.024;2023-12-14T03:02:21;94744.63;;;6.19;nan
8501;BME280;4288;48.484;10.024;2023-12-14T03:04:48;94743.44;;;6.13;nan
8501;BME280;4288;48.484;10.024;2023-12-14T03:07:16;94741.88;;;6.09;nan
8501;BME280;4288;48.484;10.024;2023-12-14T03:09:45;94740.66;;;5.96;nan
8501;BME280;4288;48.484;10.024;2023-12-14T03:12:12;94744.50;;;6.02;nan
8501;BME280;4288;48.484;10.024;2023-12-14T03:14:41;94750.56;;;6.02;nan
8501;BME280;4288;48.484;10.024;2023-12-14T03:17:08;94752.47;;;6.02;nan
8501;BME280;4288;48.484;10.024;2023-12-14T03:19:39;94756.28;;;6.08;nan
8501;BME280;4288;48.484;10.024;2023-12-14T03:22:07;94750.56;;;6.02;nan
8501;BME280;4288;48.484;10.024;2023-12-14T03:24:36;94757.44;;;6.10;nan
8501;BME280;4288;48.484;10.024;2023-12-14T03:27:04;94755.16;;;6.09;nan
8501;BME280;4288;48.484;10.024;2023-12-14T03:29:31;94766.13;;;6.07;nan
8501;BME280;4288;48.484;10.024;2023-12-14T03:32:00;94757.78;;;6.05;nan
8501;BME280;4288;48.484;10.024;2023-12-14T03:34:28;94758.94;;;6.08;nan
8501;BME280;4288;48.484;10.024;2023-12-14T03:36:55;94768.78;;;6.07;nan
8501;BME280;4288;48.484;10.024;2023-12-14T03:39:22;94771.44;;;6.07;nan
8501;BME280;4288;48.484;10.024;2023-12-14T03:41:50;94773.69;;;6.02;nan
8501;BME280;4288;48.484;10.024;2023-12-14T03:44:17;94777.44;;;6.01;nan
8501;BME280;4288;48.484;10.024;2023-12-14T03:46:45;94772.19;;;6.04;nan
8501;BME280;4288;48.484;10.024;2023-12-14T03:49:13;94778.94;;;5.95;nan
8501;BME280;4288;48.484;10.024;2023-12-14T03:51:41;94786.91;;;5.98;nan
8501;BME280;4288;48.484;10.024;2023-12-14T03:54:08;94783.88;;;5.96;nan
8501;BME280;4288;48.484;10.024;2023-12-14T03:56:36;94785.78;;;5.99;nan
8501;BME280;4288;48.484;10.024;2023-12-14T03:59:04;94795.59;;;5.99;nan
8501;BME280;4288;48.484;10.024;2023-12-14T04:01:31;94788.78;;;5.98;nan
8501;BME280;4288;48.484;10.024;2023-12-14T04:03:59;94802.81;;;5.98;nan
8501;BME280;4288;48.484;10.024;2023-12-14T04:06:28;94809.25;;;6.01;nan
8501;BME280;4288;48.484;10.024;2023-12-14T04:08:55;94818.00;;;6.05;nan
8501;BME280;4288;48.484;10.024;2023-12-14T04:11:23;94827.50;;;6.06;nan
8501;BME280;4288;48.484;10.024;2023-12-14T04:13:50;94829.00;;;6.07;nan
8501;BME280;4288;48.484;10.024;2023-12-14T04:16:20;94834.72;;;6.09;nan
8501;BME280;4288;48.484;10.024;2023-12-14T04:18:47;94849.50;;;6.06;nan
8501;BME280;4288;48.484;10.024;2023-12-14T04:21:15;94846.97;;;6.24;nan
8501;BME280;4288;48.484;10.024;2023-12-14T04:23:43;94850.34;;;6.21;nan
8501;BME280;4288;48.484;10.024;2023-12-14T04:26:11;94846.53;;;6.18;nan
8501;BME280;4288;48.484;10.024;2023-12-14T04:28:40;94855.66;;;6.21;nan
8501;BME280;4288;48.484;10.024;2023-12-14T04:31:09;94853.38;;;6.19;nan
8501;BME280;4288;48.484;10.024;2023-12-14T04:33:37;94861.00;;;6.28;nan
8501;BME280;4288;48.484;10.024;2023-12-14T04:36:05;94862.13;;;6.23;nan
8501;BME280;4288;48.484;10.024;2023-12-14T04:38:33;94857.94;;;6.22;nan
8501;BME280;4288;48.484;10.024;2023-12-14T04:41:02;94863.22;;;6.19;nan
8501;BME280;4288;48.484;10.024;2023-12-14T04:43:29;94867.81;;;6.22;nan
8501;BME280;4288;48.484;10.024;2023-12-14T04:45:58;94865.56;;;6.24;nan
8501;BME280;4288;48.484;10.024;2023-12-14T04:48:25;94876.94;;;6.28;nan
8501;BME280;4288;48.484;10.024;2023-12-14T04:50:53;94877.78;;;6.36;nan
8501;BME280;4288;48.484;10.024;2023-12-14T04:53:20;94884.97;;;6.35;nan
8501;BME280;4288;48.484;10.024;2023-12-14T04:55:47;94884.97;;;6.35;nan
8501;BME280;4288;48.484;10.024;2023-12-14T04:58:16;94895.63;;;6.42;nan
8501;BME280;4288;48.484;10.024;2023-12-14T05:00:43;94884.22;;;6.38;nan
8501;BME280;4288;48.484;10.024;2023-12-14T05:03:11;94887.63;;;6.35;nan
8501;BME280;4288;48.484;10.024;2023-12-14T05:05:38;94892.91;;;6.32;nan
8501;BME280;4288;48.484;10.024;2023-12-14T05:08:06;94903.19;;;6.40;nan
8501;BME280;4288;48.484;10.024;2023-12-14T05:10:33;94900.13;;;6.38;nan
8501;BME280;4288;48.484;10.024;2023-12-14T05:13:01;94901.69;;;6.39;nan
8501;BME280;4288;48.484;10.024;2023-12-14T05:15:29;94912.66;;;6.38;nan
8501;BME280;4288;48.484;10.024;2023-12-14T05:17:57;94917.91;;;6.34;nan
8501;BME280;4288;48.484;10.024;2023-12-14T05:20:25;94914.84;;;6.28;nan
8501;BME280;4288;48.484;10.024;2023-12-14T05:22:52;94925.78;;;6.20;nan
8501;BME280;4288;48.484;10.024;2023-12-14T05:25:19;94926.91;;;6.22;nan
8501;BME280;4288;48.484;10.024;2023-12-14T05:27:47;94930.22;;;6.12;nan
8501;BME280;4288;48.484;10.024;2023-12-14T05:30:14;94929.50;;;6.12;nan
8501;BME280;4288;48.484;10.024;2023-12-14T05:32:43;94935.94;;;6.14;nan
8501;BME280;4288;48.484;10.024;2023-12-14T05:35:11;94948.16;;;6.22;nan
8501;BME280;4288;48.484;10.024;2023-12-14T05:37:39;94946.63;;;6.21;nan
8501;BME280;4288;48.484;10.024;2023-12-14T05:40:09;94942.41;;;6.17;nan
8501;BME280;4288;48.484;10.024;2023-12-14T05:42:36;94954.47;;;6.11;nan
8501;BME280;4288;48.484;10.024;2023-12-14T05:45:05;94960.97;;;6.17;nan
8501;BME280;4288;48.484;10.024;2023-12-14T05:47:32;94967.44;;;6.16;nan
8501;BME280;4288;48.484;10.024;2023-12-14T05:50:02;94962.53;;;6.18;nan
8501;BME280;4288;48.484;10.024;2023-12-14T05:52:30;94972.38;;;6.21;nan
8501;BME280;4288;48.484;10.024;2023-12-14T05:54:57;94978.84;;;6.20;nan
8501;BME280;4288;48.484;10.024;2023-12-14T05:57:25;94971.28;;;6.22;nan
8501;BME280;4288;48.484;10.024;2023-12-14T05:59:52;94983.44;;;6.26;nan
8501;BME280;4288;48.484;10.024;2023-12-14T06:02:19;94993.66;;;6.24;nan
8501;BME280;4288;48.484;10.024;2023-12-14T06:04:47;94992.84;;;6.20;nan
8501;BME280;4288;48.484;10.024;2023-12-14T06:07:16;95004.66;;;6.26;nan
8501;BME280;4288;48.484;10.024;2023-12-14T06:09:44;95004.28;;;6.28;nan
8501;BME280;4288;48.484;10.024;2023-12-14T06:12:11;95008.84;;;6.27;nan
8501;BME280;4288;48.484;10.024;2023-12-14T06:14:40;95015.03;;;6.42;nan
8501;BME280;4288;48.484;10.024;2023-12-14T06:17:07;95023.34;;;6.37;nan
8501;BME280;4288;48.484;10.024;2023-12-14T06:19:34;95028.69;;;6.41;nan
8501;BME280;4288;48.484;10.024;2023-12-14T06:22:02;95031.78;;;6.46;nan
8501;BME280;4288;48.484;10.024;2023-12-14T06:24:31;95029.88;;;6.47;nan
8501;BME280;4288;48.484;10.024;2023-12-14T06:26:58;95035.59;;;6.49;nan
8501;BME280;4288;48.484;10.024;2023-12-14T06:29:25;95048.06;;;6.45;nan
8501;BME280;4288;48.484;10.024;2023-12-14T06:31:53;95053.75;;;6.43;nan
8501;BME280;4288;48.484;10.024;2023-12-14T06:34:20;95053.34;;;6.41;nan
8501;BME280;4288;48.484;10.024;2023-12-14T06:36:47;95055.63;;;6.43;nan
8501;BME280;4288;48.484;10.024;2023-12-14T06:39:15;95054.47;;;6.40;nan
8501;BME280;4288;48.484;10.024;2023-12-14T06:41:44;95060.66;;;6.51;nan
8501;BME280;4288;48.484;10.024;2023-12-14T06:44:11;95071.97;;;6.48;nan
8501;BME280;4288;48.484;10.024;2023-12-14T06:46:38;95069.63;;;6.40;nan
8501;BME280;4288;48.484;10.024;2023-12-14T06:49:06;95072.63;;;6.38;nan
8501;BME280;4288;48.484;10.024;2023-12-14T06:51:33;95071.53;;;6.39;nan
8501;BME280;4288;48.484;10.024;2023-12-14T06:54:00;95076.47;;;6.41;nan
8501;BME280;4288;48.484;10.024;2023-12-14T06:56:28;95088.66;;;6.45;nan
8501;BME280;4288;48.484;10.024;2023-12-14T06:58:57;95092.38;;;6.41;nan
8501;BME280;4288;48.484;10.024;2023-12-14T07:01:24;95096.59;;;6.42;nan
8501;BME280;4288;48.484;10.024;2023-12-14T07:03:51;95100.00;;;6.46;nan
8501;BME280;4288;48.484;10.024;2023-12-14T07:06:20;95106.84;;;6.47;nan
8501;BME280;4288;48.484;10.024;2023-12-14T07:08:47;95113.78;;;6.55;nan
8501;BME280;4288;48.484;10.024;2023-12-14T07:11:15;95116.63;;;6.72;nan
8501;BME280;4288;48.484;10.024;2023-12-14T07:13:43;95134.09;;;6.77;nan
8501;BME280;4288;48.484;10.024;2023-12-14T07:16:13;95131.06;;;6.75;nan
8501;BME280;4288;48.484;10.024;2023-12-14T07:18:41;95137.56;;;6.81;nan
8501;BME280;4288;48.484;10.024;2023-12-14T07:21:09;95142.03;;;6.73;nan
8501;BME280;4288;48.484;10.024;2023-12-14T07:23:37;95146.66;;;6.80;nan
8501;BME280;4288;48.484;10.024;2023-12-14T07:26:04;95148.75;;;6.64;nan
8501;BME280;4288;48.484;10.024;2023-12-14T07:28:32;95156.84;;;6.74;nan
8501;BME280;4288;48.484;10.024;2023-12-14T07:30:59;95151.22;;;6.83;nan
8501;BME280;4288;48.484;10.024;2023-12-14T07:33:28;95159.13;;;6.76;nan
8501;BME280;4288;48.484;10.024;2023-12-14T07:35:55;95164.16;;;6.84;nan
8501;BME280;4288;48.484;10.024;2023-12-14T07:38:22;95165.72;;;6.89;nan
8501;BME280;4288;48.484;10.024;2023-12-14T07:40:50;95162.63;;;6.83;nan
8501;BME280;4288;48.484;10.024;2023-12-14T07:43:18;95172.56;;;6.90;nan
8501;BME280;4288;48.484;10.024;2023-12-14T07:45:45;95167.22;;;6.86;nan
8501;BME280;4288;48.484;10.024;2023-12-14T07:48:13;95183.56;;;6.88;nan
8501;BME280;4288;48.484;10.024;2023-12-14T07:50:41;95184.94;;;6.79;nan
8501;BME280;4288;48.484;10.024;2023-12-14T07:53:09;95192.19;;;6.78;nan
8501;BME280;4288;48.484;10.024;2023-12-14T07:55:36;95192.84;;;6.72;nan
8501;BME280;4288;48.484;10.024;2023-12-14T07:58:03;95197.72;;;6.66;nan
8501;BME280;4288;48.484;10.024;2023-12-14T08:00:31;95200.03;;;6.71;nan
8501;BME280;4288;48.484;10.024;2023-12-14T08:02:59;95205.34;;;6.71;nan
8501;BME280;4288;48.484;10.024;2023-12-14T08:05:26;95211.88;;;6.77;nan
8501;BME280;4288;48.484;10.024;2023-12-14T08:07:55;95203.28;;;6.87;nan
8501;BME280;4288;48.484;10.024;2023-12-14T08:10:22;95215.72;;;6.80;nan
8501;BME280;4288;48.484;10.024;2023-12-14T08:12:50;95213.81;;;6.80;nan
8501;BME280;4288;48.484;10.024;2023-12-14T08:15:18;95230.19;;;6.86;nan
8501;BME280;4288;48.484;10.024;2023-12-14T08:17:45;95234.47;;;6.94;nan
8501;BME280;4288;48.484;10.024;2023-12-14T08:20:13;95238.66;;;6.98;nan
8501;BME280;4288;48.484;10.024;2023-12-14T08:22:40;95251.66;;;7.03;nan
8501;BME280;4288;48.484;10.024;2023-12-14T08:25:13;95250.59;;;7.11;nan
8501;BME280;4288;48.484;10.024;2023-12-14T08:27:41;95254.38;;;7.10;nan
8501;BME280;4288;48.484;10.024;2023-12-14T08:30:10;95264.97;;;7.07;nan
8501;BME280;4288;48.484;10.024;2023-12-14T08:32:38;95264.56;;;7.05;nan
8501;BME280;4288;48.484;10.024;2023-12-14T08:35:06;95268.31;;;7.00;nan
8501;BME280;4288;48.484;10.024;2023-12-14T08:37:34;95265.66;;;7.00;nan
8501;BME280;4288;48.484;10.024;2023-12-14T08:40:02;95278.28;;;7.10;nan
8501;BME280;4288;48.484;10.024;2023-12-14T08:42:31;95276.44;;;7.14;nan
8501;BME280;4288;48.484;10.024;2023-12-14T08:44:58;95278.44;;;7.25;nan
8501;BME280;4288;48.484;10.024;2023-12-14T08:47:26;95285.94;;;7.15;nan
8501;BME280;4288;48.484;10.024;2023-12-14T08:49:53;95285.16;;;7.11;nan
8501;BME280;4288;48.484;10.024;2023-12-14T08:52:20;95292.75;;;7.13;nan
8501;BME280;4288;48.484;10.024;2023-12-14T08:54:48;95294.72;;;7.19;nan
8501;BME280;4288;48.484;10.024;2023-12-14T08:57:15;95301.31;;;7.33;nan
8501;BME280;4288;48.484;10.024;2023-12-14T08:59:44;95303.09;;;7.55;nan
8501;BME280;4288;48.484;10.024;2023-12-14T09:02:11;95307.94;;;7.86;nan
8501;BME280;4288;48.484;10.024;2023-12-14T09:04:39;95309.34;;;7.76;nan
8501;BME280;4288;48.484;10.024;2023-12-14T09:07:06;95322.59;;;7.69;nan
8501;BME280;4288;48.484;10.024;2023-12-14T09:09:33;95321.56;;;7.81;nan
8501;BME280;4288;48.484;10.024;2023-12-14T09:12:01;95330.91;;;8.04;nan
8501;BME280;4288;48.484;10.024;2023-12-14T09:14:28;95328.16;;;8.38;nan
8501;BME280;4288;48.484;10.024;2023-12-14T09:16:58;95331.94;;;8.94;nan
8501;BME280;4288;48.484;10.024;2023-12-14T09:19:25;95332.13;;;9.40;nan
8501;BME280;4288;48.484;10.024;2023-12-14T09:21:52;95343.59;;;9.51;nan
8501;BME280;4288;48.484;10.024;2023-12-14T09:24:20;95346.53;;;9.22;nan
8501;BME280;4288;48.484;10.024;2023-12-14T09:26:47;95346.88;;;9.13;nan
8501;BME280;4288;48.484;10.024;2023-12-14T09:29:14;95354.91;;;9.24;nan
8501;BME280;4288;48.484;10.024;2023-12-14T09:31:42;95353.75;;;9.21;nan
8501;BME280;4288;48.484;10.024;2023-12-14T09:34:11;95353.75;;;9.18;nan
8501;BME280;4288;48.484;10.024;2023-12-14T09:36:39;95356.03;;;9.23;nan
8501;BME280;4288;48.484;10.024;2023-12-14T09:39:07;95371.72;;;9.35;nan
8501;BME280;4288;48.484;10.024;2023-12-14T09:41:36;95371.00;;;9.48;nan
8501;BME280;4288;48.484;10.024;2023-12-14T09:44:04;95372.56;;;9.53;nan
8501;BME280;4288;48.484;10.024;2023-12-14T09:46:34;95380.63;;;9.67;nan
8501;BME280;4288;48.484;10.024;2023-12-14T09:49:04;95389.03;;;9.79;nan
8501;BME280;4288;48.484;10.024;2023-12-14T09:51:33;95389.78;;;9.73;nan
8501;BME280;4288;48.484;10.024;2023-12-14T09:54:01;95390.97;;;9.79;nan
8501;BME280;4288;48.484;10.024;2023-12-14T09:56:28;95397.41;;;9.74;nan
8501;BME280;4288;48.484;10.024;2023-12-14T09:58:56;95390.31;;;10.73;nan
8501;BME280;4288;48.484;10.024;2023-12-14T10:01:25;95395.34;;;12.99;nan
8501;BME280;4288;48.484;10.024;2023-12-14T10:04:08;69197.78;;;-143.23;100.00
8501;BME280;4288;48.484;10.024;2023-12-14T10:06:37;95395.34;;;12.99;nan
8501;BME280;4288;48.484;10.024;2023-12-14T10:09:05;89816.66;;;12.99;100.00
8501;BME280;4288;48.484;10.024;2023-12-14T10:11:35;95407.25;;;20.44;nan
8501;BME280;4288;48.484;10.024;2023-12-14T10:14:03;95411.50;;;19.80;nan
8501;BME280;4288;48.484;10.024;2023-12-14T10:16:32;95415.94;;;17.76;nan
8501;BME280;4288;48.484;10.024;2023-12-14T10:19:00;95412.38;;;16.57;nan
8501;BME280;4288;48.484;10.024;2023-12-14T10:21:28;95412.22;;;15.31;nan
8501;BME280;4288;48.484;10.024;2023-12-14T10:23:58;95400.00;;;14.30;nan
8501;BME280;4288;48.484;10.024;2023-12-14T10:26:26;95403.22;;;13.88;nan
8501;BME280;4288;48.484;10.024;2023-12-14T10:28:53;95399.66;;;14.24;nan
8501;BME280;4288;48.484;10.024;2023-12-14T10:31:21;95410.28;;;15.54;nan
8501;BME280;4288;48.484;10.024;2023-12-14T10:33:48;95412.19;;;16.64;nan
8501;BME280;4288;48.484;10.024;2023-12-14T10:36:19;95412.38;;;16.57;nan
8501;BME280;4288;48.484;10.024;2023-12-14T10:38:50;95411.28;;;15.80;nan
8501;BME280;4288;48.484;10.024;2023-12-14T10:41:21;95412.47;;;14.70;nan
8501;BME280;4288;48.484;10.024;2023-12-14T10:43:51;95415.13;;;14.17;nan
8501;BME280;4288;48.484;10.024;2023-12-14T10:46:20;95423.41;;;13.35;nan
8501;BME280;4288;48.484;10.024;2023-12-14T10:48:50;95419.56;;;12.41;nan
8501;BME280;4288;48.484;10.024;2023-12-14T10:51:19;95427.50;;;11.86;nan
8501;BME280;4288;48.484;10.024;2023-12-14T10:53:48;95428.47;;;11.27;nan
8501;BME280;4288;48.484;10.024;2023-12-14T10:56:19;95433.84;;;10.99;nan
8501;BME280;4288;48.484;10.024;2023-12-14T10:58:51;95438.06;;;10.71;nan
8501;BME280;4288;48.484;10.024;2023-12-14T11:01:20;95436.91;;;10.55;nan
8501;BME280;4288;48.484;10.024;2023-12-14T11:03:48;95441.50;;;10.68;nan
8501;BME280;4288;48.484;10.024;2023-12-14T11:06:27;95446.72;;;11.67;nan
8501;BME280;4288;48.484;10.024;2023-12-14T11:08:57;95454.44;;;12.34;nan
8501;BME280;4288;48.484;10.024;2023-12-14T11:11:30;95457.06;;;12.48;nan
8501;BME280;4288;48.484;10.024;2023-12-14T11:13:57;95459.22;;;11.98;nan
8501;BME280;4288;48.484;10.024;2023-12-14T11:16:26;95457.44;;;11.53;nan
8501;BME280;4288;48.484;10.024;2023-12-14T11:19:23;95469.38;;;11.13;nan
8501;BME280;4288;48.484;10.024;2023-12-14T11:22:10;95469.38;;;10.92;nan
8501;BME280;4288;48.484;10.024;2023-12-14T11:24:42;95467.09;;;10.98;nan
8501;BME280;4288;48.484;10.024;2023-12-14T11:27:12;95471.28;;;11.09;nan
8501;BME280;4288;48.484;10.024;2023-12-14T11:29:39;95480.84;;;10.86;nan
8501;BME280;4288;48.484;10.024;2023-12-14T11:32:07;95489.19;;;10.59;nan
8501;BME280;4288;48.484;10.024;2023-12-14T11:34:35;95483.78;;;10.21;nan
8501;BME280;4288;48.484;10.024;2023-12-14T11:37:03;95480.19;;;9.85;nan
8501;BME280;4288;48.484;10.024;2023-12-14T11:39:32;95481.94;;;9.53;nan
8501;BME280;4288;48.484;10.024;2023-12-14T11:42:00;95478.78;;;9.37;nan
8501;BME280;4288;48.484;10.024;2023-12-14T11:44:29;95486.53;;;8.98;nan
8501;BME280;4288;48.484;10.024;2023-12-14T11:46:56;95490.69;;;8.92;nan
8501;BME280;4288;48.484;10.024;2023-12-14T11:49:25;95492.91;;;8.83;nan
8501;BME280;4288;48.484;10.024;2023-12-14T11:51:54;95493.97;;;8.75;nan
8501;BME280;4288;48.484;10.024;2023-12-14T11:54:22;95495.13;;;8.77;nan
8501;BME280;4288;48.484;10.024;2023-12-14T11:56:50;95501.19;;;8.74;nan
8501;BME280;4288;48.484;10.024;2023-12-14T11:59:18;95504.38;;;8.90;nan
8501;BME280;4288;48.484;10.024;2023-12-14T12:01:59;95508.09;;;9.30;nan
8501;BME280;4288;48.484;10.024;2023-12-14T12:04:27;95504.50;;;10.62;nan
8501;BME280;4288;48.484;10.024;2023-12-14T12:07:01;95511.69;;;11.85;nan
8501;BME280;4288;48.484;10.024;2023-12-14T12:09:34;95503.66;;;12.65;nan
8501;BME280;4288;48.484;10.024;2023-12-14T12:12:04;95504.06;;;13.18;nan
8501;BME280;4288;48.484;10.024;2023-12-14T12:14:32;95507.78;;;12.76;nan
8501;BME280;4288;48.484;10.024;2023-12-14T12:17:01;95512.22;;;12.42;nan
8501;BME280;4288;48.484;10.024;2023-12-14T12:19:30;95505.88;;;12.04;nan
8501;BME280;4288;48.484;10.024;2023-12-14T12:21:58;95506.19;;;12.20;nan
8501;BME280;4288;48.484;10.024;2023-12-14T12:24:25;95510.25;;;12.49;nan
8501;BME280;4288;48.484;10.024;2023-12-14T12:26:53;95511.59;;;12.82;nan
8501;BME280;4288;48.484;10.024;2023-12-14T12:29:21;95505.56;;;13.22;nan
8501;BME280;4288;48.484;10.024;2023-12-14T12:31:49;95510.72;;;14.18;nan
8501;BME280;4288;48.484;10.024;2023-12-14T12:34:19;95514.06;;;14.59;nan
8501;BME280;4288;48.484;10.024;2023-12-14T12:36:46;95510.53;;;15.15;nan
8501;BME280;4288;48.484;10.024;2023-12-14T12:39:14;95520.59;;;15.61;nan
8501;BME280;4288;48.484;10.024;2023-12-14T12:41:41;95517.94;;;15.11;nan
8501;BME280;4288;48.484;10.024;2023-12-14T12:44:09;95512.91;;;14.26;nan
8501;BME280;4288;48.484;10.024;2023-12-14T12:46:37;95514.28;;;13.74;nan
8501;BME280;4288;48.484;10.024;2023-12-14T12:49:06;95515.22;;;14.28;nan
8501;BME280;4288;48.484;10.024;2023-12-14T12:51:34;95524.00;;;15.42;nan
8501;BME280;4288;48.484;10.024;2023-12-14T12:54:02;95529.81;;;15.37;nan
8501;BME280;4288;48.484;10.024;2023-12-14T12:56:30;95533.94;;;14.39;nan
8501;BME280;4288;48.484;10.024;2023-12-14T12:58:57;95535.47;;;13.21;nan
8501;BME280;4288;48.484;10.024;2023-12-14T13:01:24;95541.81;;;12.90;nan
8501;BME280;4288;48.484;10.024;2023-12-14T13:03:54;95547.16;;;12.17;nan
8501;BME280;4288;48.484;10.024;2023-12-14T13:06:23;95548.81;;;11.48;nan
8501;BME280;4288;48.484;10.024;2023-12-14T13:08:53;95556.09;;;11.30;nan
8501;BME280;4288;48.484;10.024;2023-12-14T13:11:20;95554.19;;;11.20;nan
8501;BME280;4288;48.484;10.024;2023-12-14T13:13:47;95557.56;;;10.67;nan
8501;BME280;4288;48.484;10.024;2023-12-14T13:16:15;95556.38;;;10.54;nan
8501;BME280;4288;48.484;10.024;2023-12-14T13:18:43;95558.63;;;10.38;nan
8501;BME280;4288;48.484;10.024;2023-12-14T13:21:12;95562.00;;;10.28;nan
8501;BME280;4288;48.484;10.024;2023-12-14T13:23:39;95563.56;;;10.33;nan
8501;BME280;4288;48.484;10.024;2023-12-14T13:26:09;95563.91;;;10.24;nan
8501;BME280;4288;48.484;10.024;2023-12-14T13:28:36;95567.75;;;10.34;nan
8501;BME280;4288;48.484;10.024;2023-12-14T13:31:04;95569.22;;;10.14;nan
8501;BME280;4288;48.484;10.024;2023-12-14T13:33:32;95580.31;;;10.23;nan
8501;BME280;4288;48.484;10.024;2023-12-14T13:35:59;95573.47;;;10.29;nan
8501;BME280;4288;48.484;10.024;2023-12-14T13:38:27;95579.66;;;10.43;nan
8501;BME280;4288;48.484;10.024;2023-12-14T13:40:54;95588.47;;;10.58;nan
8501;BME280;4288;48.484;10.024;2023-12-14T13:43:23;95585.78;;;10.61;nan
8501;BME280;4288;48.484;10.024;2023-12-14T13:45:51;95590.78;;;10.73;nan